createdAt,value
2022-12-15T00:00:22.981Z,28.07
2022-12-15T00:03:08.593Z,23.20
2022-12-15T00:05:54.456Z,24.60
2022-12-15T00:08:39.868Z,30.20
2022-12-15T00:11:25.391Z,25.73
2022-12-15T00:14:12.444Z,27.30
2022-12-15T00:16:57.935Z,27.47
2022-12-15T00:19:43.652Z,24.93
2022-12-15T00:22:29.177Z,29.73
2022-12-15T00:25:14.664Z,27.93
2022-12-15T00:27:59.942Z,26.80
2022-12-15T00:30:49.640Z,26.47
2022-12-15T00:33:36.004Z,26.87
2022-12-15T00:36:21.466Z,30.33
2022-12-15T00:38:49.616Z,33.50
2022-12-15T00:41:19.232Z,27.43
2022-12-15T00:43:47.517Z,33.00
2022-12-15T00:46:34.719Z,30.97
2022-12-15T00:49:02.958Z,25.70
2022-12-15T00:51:48.519Z,25.53
2022-12-15T00:54:33.805Z,24.97
2022-12-15T00:57:19.317Z,30.90
2022-12-15T01:00:04.891Z,29.53
2022-12-15T01:02:52.094Z,27.03
2022-12-15T01:05:38.110Z,29.53
2022-12-15T01:08:23.628Z,24.80
2022-12-15T01:11:08.995Z,28.20
2022-12-15T01:13:54.600Z,28.20
2022-12-15T01:16:40.936Z,24.37
2022-12-15T01:19:28.285Z,25.80
2022-12-15T01:21:56.487Z,24.47
2022-12-15T01:24:24.699Z,26.90
2022-12-15T01:26:56.088Z,32.03
2022-12-15T01:29:24.468Z,24.10
2022-12-15T01:31:52.721Z,27.10
2022-12-15T01:34:22.810Z,26.20
2022-12-15T01:36:51.012Z,26.30
2022-12-15T01:39:19.165Z,26.17
2022-12-15T01:41:46.338Z,26.60
2022-12-15T01:44:20.333Z,24.90
2022-12-15T01:46:50.051Z,28.60
2022-12-15T01:49:21.930Z,26.00
2022-12-15T01:51:54.441Z,28.57
2022-12-15T01:54:25.973Z,29.40
2022-12-15T01:56:57.835Z,26.53
2022-12-15T01:59:35.320Z,27.13
2022-12-15T02:02:04.815Z,28.50
2022-12-15T02:04:34.794Z,27.90
2022-12-15T02:07:04.401Z,25.07
2022-12-15T02:09:32.851Z,33.33
2022-12-15T02:12:08.732Z,28.77
2022-12-15T02:14:59.863Z,29.90
2022-12-15T02:17:36.378Z,29.00
2022-12-15T02:20:34.775Z,32.47
2022-12-15T02:23:35.577Z,30.17
2022-12-15T02:26:34.190Z,29.17
2022-12-15T02:29:18.871Z,29.23
2022-12-15T02:31:53.989Z,30.03
2022-12-15T02:34:30.382Z,25.00
2022-12-15T02:37:02.810Z,24.87
2022-12-15T02:39:31.079Z,27.80
2022-12-15T02:41:59.289Z,28.37
2022-12-15T02:44:31.587Z,29.77
2022-12-15T02:47:28.581Z,30.07
2022-12-15T02:50:23.609Z,25.47
2022-12-15T02:53:03.817Z,24.50
2022-12-15T02:55:38.743Z,30.97
2022-12-15T02:58:13.529Z,26.90
2022-12-15T03:00:46.728Z,27.63
2022-12-15T03:03:20.532Z,24.97
2022-12-15T03:05:53.242Z,28.50
2022-12-15T03:08:21.860Z,26.67
2022-12-15T03:10:52.131Z,25.57
2022-12-15T03:13:24.351Z,30.53
2022-12-15T03:15:54.513Z,25.83
2022-12-15T03:18:24.056Z,29.30
2022-12-15T03:20:52.281Z,30.00
2022-12-15T03:23:22.971Z,29.13
2022-12-15T03:25:51.526Z,29.73
2022-12-15T03:28:19.737Z,23.67
2022-12-15T03:30:50.419Z,24.53
2022-12-15T03:33:19.138Z,25.93
2022-12-15T03:35:48.680Z,30.23
2022-12-15T03:38:16.926Z,31.33
2022-12-15T03:40:45.105Z,31.00
2022-12-15T03:43:13.241Z,22.45
2022-12-15T03:45:41.428Z,27.83
2022-12-15T03:48:09.603Z,29.33
2022-12-15T03:50:37.739Z,28.47
2022-12-15T03:53:07.243Z,28.77
2022-12-15T03:55:36.158Z,24.83
2022-12-15T03:58:05.517Z,30.35
2022-12-15T04:00:33.834Z,26.20
2022-12-15T04:03:02.119Z,30.60
2022-12-15T04:05:32.145Z,29.02
2022-12-15T04:08:01.514Z,31.17
2022-12-15T04:10:34.677Z,26.58
2022-12-15T04:13:05.309Z,30.67
2022-12-15T04:15:33.504Z,33.43
2022-12-15T04:18:03.031Z,29.03
2022-12-15T04:20:31.279Z,32.33
2022-12-15T04:22:59.562Z,26.60
2022-12-15T04:25:46.020Z,30.50
2022-12-15T04:28:33.039Z,27.07
2022-12-15T04:31:21.380Z,33.78
2022-12-15T04:34:10.604Z,33.00
2022-12-15T04:36:59.093Z,25.93
2022-12-15T04:39:44.886Z,32.00
2022-12-15T04:42:30.992Z,33.97
2022-12-15T04:45:21.362Z,33.37
2022-12-15T04:48:07.688Z,28.97
2022-12-15T04:50:53.580Z,24.60
2022-12-15T04:53:40.396Z,27.10
2022-12-15T04:56:29.597Z,28.97
2022-12-15T04:59:15.103Z,24.57
2022-12-15T05:02:02.200Z,30.20
2022-12-15T05:04:47.766Z,29.67
2022-12-15T05:07:33.864Z,28.73
2022-12-15T05:10:19.525Z,25.60
2022-12-15T05:13:04.987Z,29.80
2022-12-15T05:15:51.548Z,29.50
2022-12-15T05:18:38.704Z,29.50
2022-12-15T05:21:24.572Z,24.47
2022-12-15T05:24:10.037Z,30.57
2022-12-15T05:26:55.456Z,30.53
2022-12-15T05:29:41.014Z,28.40
2022-12-15T05:32:10.036Z,23.83
2022-12-15T05:34:39.617Z,28.87
2022-12-15T05:37:07.942Z,31.07
2022-12-15T05:39:36.703Z,24.30
2022-12-15T05:42:05.197Z,28.93
2022-12-15T05:44:34.152Z,28.17
2022-12-15T05:47:02.377Z,27.53
2022-12-15T05:49:30.626Z,25.90
2022-12-15T05:52:00.136Z,28.47
2022-12-15T05:54:28.613Z,29.67
2022-12-15T05:56:56.748Z,29.40
2022-12-15T05:59:24.922Z,28.90
2022-12-15T06:01:53.141Z,30.70
2022-12-15T06:04:21.410Z,30.85
2022-12-15T06:06:49.540Z,28.05
2022-12-15T06:09:19.176Z,31.73
2022-12-15T06:11:48.915Z,26.58
2022-12-15T06:14:17.167Z,27.40
2022-12-15T06:16:51.042Z,27.30
2022-12-15T06:19:20.458Z,30.47
2022-12-15T06:21:48.837Z,33.90
2022-12-15T06:24:18.393Z,28.33
2022-12-15T06:26:46.722Z,37.03
2022-12-15T06:29:18.542Z,31.10
2022-12-15T06:31:46.839Z,28.30
2022-12-15T06:34:17.627Z,29.70
2022-12-15T06:36:46.258Z,31.55
2022-12-15T06:39:16.595Z,30.02
2022-12-15T06:41:46.603Z,31.58
2022-12-15T06:44:16.322Z,29.53
2022-12-15T06:46:46.146Z,30.40
2022-12-15T06:49:15.013Z,31.80
2022-12-15T06:51:44.092Z,32.00
2022-12-15T06:54:12.615Z,33.58
2022-12-15T06:56:41.326Z,31.00
2022-12-15T06:59:12.281Z,33.60
2022-12-15T07:01:41.707Z,28.85
2022-12-15T07:04:11.337Z,33.53
2022-12-15T07:06:41.179Z,34.50
2022-12-15T07:09:13.883Z,33.67
2022-12-15T07:11:42.032Z,36.05
2022-12-15T07:14:11.833Z,32.53
2022-12-15T07:16:41.066Z,39.10
2022-12-15T07:19:12.792Z,36.65
2022-12-15T07:21:42.447Z,32.83
2022-12-15T07:24:12.431Z,40.90
2022-12-15T07:26:40.723Z,38.28
2022-12-15T07:29:09.035Z,32.50
2022-12-15T07:31:38.865Z,27.85
2022-12-15T07:34:07.208Z,37.70
2022-12-15T07:36:35.693Z,29.67
2022-12-15T07:39:05.469Z,28.73
2022-12-15T07:41:33.784Z,32.42
2022-12-15T07:44:02.368Z,31.00
2022-12-15T07:46:30.876Z,35.13
2022-12-15T07:49:00.467Z,34.63
2022-12-15T07:51:29.126Z,29.15
2022-12-15T07:53:57.517Z,30.15
2022-12-15T07:56:28.680Z,31.13
2022-12-15T07:58:56.811Z,31.38
2022-12-15T08:01:25.362Z,31.58
2022-12-15T08:03:53.877Z,37.10
2022-12-15T08:06:23.716Z,36.10
2022-12-15T08:08:52.455Z,32.38
2022-12-15T08:11:23.017Z,31.50
2022-12-15T08:14:10.717Z,30.02
2022-12-15T08:16:39.832Z,38.00
2022-12-15T08:19:11.708Z,38.47
2022-12-15T08:21:43.141Z,37.87
2022-12-15T08:24:11.417Z,37.60
2022-12-15T08:26:41.918Z,34.20
2022-12-15T08:32:02.043Z,35.47
2022-12-15T08:34:30.407Z,33.40
2022-12-15T08:36:59.981Z,42.00
2022-12-15T08:39:29.628Z,41.15
2022-12-15T08:41:57.776Z,38.08
2022-12-15T08:44:25.895Z,38.10
2022-12-15T08:46:54.008Z,42.90
2022-12-15T08:49:22.703Z,39.23
2022-12-15T08:51:51.313Z,49.63
2022-12-15T08:54:21.594Z,44.20
2022-12-15T08:56:50.324Z,50.83
2022-12-15T08:59:19.134Z,50.43
2022-12-15T09:01:47.554Z,41.30
2022-12-15T09:04:16.505Z,42.97
2022-12-15T09:06:50.244Z,42.90
2022-12-15T09:09:21.032Z,38.87
2022-12-15T09:11:49.867Z,42.07
2022-12-15T09:14:21.603Z,35.60
2022-12-15T09:16:53.851Z,46.40
2022-12-15T09:19:25.276Z,57.60
2022-12-15T09:21:53.438Z,46.67
2022-12-15T09:24:33.914Z,44.83
2022-12-15T09:27:03.973Z,42.50
2022-12-15T09:29:32.207Z,44.60
2022-12-15T09:32:00.473Z,48.07
2022-12-15T09:34:28.772Z,47.40
2022-12-15T09:36:57.390Z,43.63
2022-12-15T09:39:27.034Z,48.27
2022-12-15T09:41:58.955Z,53.57
2022-12-15T09:44:30.106Z,42.40
2022-12-15T09:47:11.472Z,40.63
2022-12-15T09:49:55.546Z,40.43
2022-12-15T09:52:27.515Z,40.47
2022-12-15T09:54:58.384Z,35.77
2022-12-15T09:57:37.858Z,49.70
2022-12-15T10:00:21.145Z,40.57
2022-12-15T10:03:30.164Z,36.73
2022-12-15T10:06:20.185Z,39.73
2022-12-15T10:08:55.136Z,32.30
2022-12-15T10:11:37.344Z,36.80
2022-12-15T10:14:14.354Z,38.80
2022-12-15T10:16:54.906Z,31.40
2022-12-15T10:19:31.178Z,30.47
2022-12-15T10:21:59.716Z,31.53
2022-12-15T10:25:08.009Z,35.17
2022-12-15T10:27:36.051Z,40.00
2022-12-15T10:30:06.841Z,31.83
2022-12-15T10:32:50.680Z,34.33
2022-12-15T10:35:23.081Z,35.53
2022-12-15T10:37:51.421Z,36.53
2022-12-15T10:40:40.711Z,34.27
2022-12-15T10:43:15.169Z,37.83
2022-12-15T10:45:43.489Z,39.30
2022-12-15T10:48:20.905Z,36.13
2022-12-15T10:50:50.145Z,34.07
2022-12-15T10:53:38.622Z,32.13
2022-12-15T10:56:08.447Z,31.50
2022-12-15T10:58:50.234Z,35.33
2022-12-15T11:01:36.499Z,35.03
2022-12-15T11:04:05.025Z,40.70
2022-12-15T11:06:37.033Z,48.07
2022-12-15T11:09:27.813Z,47.63
2022-12-15T11:12:11.948Z,43.07
2022-12-15T11:14:47.732Z,43.67
2022-12-15T11:17:18.476Z,43.60
2022-12-15T11:19:56.686Z,39.40
2022-12-15T11:22:36.412Z,39.13
2022-12-15T11:25:13.321Z,38.90
2022-12-15T11:27:45.600Z,41.60
2022-12-15T11:30:18.095Z,46.60
2022-12-15T11:32:48.846Z,36.37
2022-12-15T11:35:21.060Z,35.90
2022-12-15T11:37:53.067Z,36.53
2022-12-15T11:40:33.787Z,36.03
2022-12-15T11:43:35.878Z,38.63
2022-12-15T11:46:19.339Z,35.03
2022-12-15T11:49:07.338Z,32.97
2022-12-15T11:51:43.674Z,34.43
2022-12-15T11:54:18.676Z,38.97
2022-12-15T11:56:51.807Z,32.13
2022-12-15T11:59:55.527Z,42.23
2022-12-15T12:02:45.140Z,37.77
2022-12-15T12:05:32.679Z,36.13
2022-12-15T12:08:12.562Z,39.40
2022-12-15T12:10:48.723Z,41.03
2022-12-15T12:13:24.229Z,32.33
2022-12-15T12:16:02.408Z,36.90
2022-12-15T12:18:35.632Z,40.40
2022-12-15T12:21:08.757Z,38.80
2022-12-15T12:23:43.736Z,39.17
2022-12-15T12:26:17.977Z,34.93
2022-12-15T12:28:51.076Z,40.67
2022-12-15T12:31:27.390Z,39.53
2022-12-15T12:34:03.598Z,45.63
2022-12-15T12:36:31.701Z,39.53
2022-12-15T12:39:00.839Z,43.30
2022-12-15T12:41:39.438Z,40.27
2022-12-15T12:44:14.016Z,39.33
2022-12-15T12:46:44.992Z,37.27
2022-12-15T12:49:26.625Z,43.10
2022-12-15T12:51:58.612Z,37.30
2022-12-15T12:54:45.404Z,38.53
2022-12-15T12:57:37.160Z,38.97
2022-12-15T13:00:19.637Z,40.70
2022-12-15T13:03:20.134Z,41.27
2022-12-15T13:05:52.204Z,48.40
2022-12-15T13:08:51.197Z,36.33
2022-12-15T13:12:14.946Z,42.07
2022-12-15T13:14:51.928Z,45.20
2022-12-15T13:17:40.107Z,45.40
2022-12-15T13:20:27.204Z,39.67
2022-12-15T13:23:18.829Z,41.33
2022-12-15T13:25:53.652Z,38.40
2022-12-15T13:28:28.450Z,40.70
2022-12-15T13:31:25.100Z,36.40
2022-12-15T13:33:59.568Z,40.73
2022-12-15T13:36:54.249Z,36.63
2022-12-15T13:39:53.836Z,39.00
2022-12-15T13:42:38.892Z,48.93
2022-12-15T13:45:45.285Z,33.57
2022-12-15T13:48:38.410Z,37.60
2022-12-15T13:51:30.289Z,42.80
2022-12-15T13:54:02.898Z,44.77
2022-12-15T13:56:53.811Z,40.23
2022-12-15T13:59:38.592Z,38.43
2022-12-15T14:02:24.474Z,38.90
2022-12-15T14:05:12.753Z,42.37
2022-12-15T14:07:47.172Z,42.93
2022-12-15T14:10:23.584Z,40.60
2022-12-15T14:12:56.434Z,40.60
2022-12-15T14:15:29.116Z,41.53
2022-12-15T14:17:58.926Z,42.17
2022-12-15T14:20:29.703Z,45.00
2022-12-15T14:22:57.897Z,45.70
2022-12-15T14:25:29.525Z,47.03
2022-12-15T14:27:59.172Z,45.97
2022-12-15T14:30:29.612Z,45.50
2022-12-15T14:33:03.166Z,43.63
2022-12-15T14:35:34.706Z,45.93
2022-12-15T14:38:07.424Z,50.37
2022-12-15T14:40:36.605Z,41.13
2022-12-15T14:43:07.371Z,43.33
2022-12-15T14:45:35.532Z,48.67
2022-12-15T14:51:00.407Z,42.57
2022-12-15T14:53:32.894Z,52.70
2022-12-15T14:56:15.050Z,46.27
2022-12-15T14:58:48.998Z,53.03
2022-12-15T15:01:25.858Z,45.93
2022-12-15T15:04:05.282Z,47.30
2022-12-15T15:06:37.077Z,50.70
2022-12-15T15:09:17.766Z,43.77
2022-12-15T15:11:46.192Z,45.07
2022-12-15T15:14:22.707Z,47.43
2022-12-15T15:17:03.089Z,52.03
2022-12-15T15:19:39.357Z,48.37
2022-12-15T15:22:24.623Z,44.03
2022-12-15T15:24:53.433Z,41.77
2022-12-15T15:27:33.948Z,45.50
2022-12-15T15:30:18.986Z,42.33
2022-12-15T15:32:56.279Z,49.10
2022-12-15T15:35:26.495Z,47.40
2022-12-15T15:37:56.967Z,51.67
2022-12-15T15:40:25.111Z,38.40
2022-12-15T15:42:53.227Z,44.60
2022-12-15T15:45:23.123Z,43.57
2022-12-15T15:47:56.072Z,42.57
2022-12-15T15:50:30.218Z,53.20
2022-12-15T15:52:59.100Z,45.07
2022-12-15T15:55:36.297Z,45.30
2022-12-15T15:58:11.790Z,55.37
2022-12-15T16:00:41.666Z,47.00
2022-12-15T16:03:10.076Z,49.87
2022-12-15T16:05:39.084Z,46.57
2022-12-15T16:08:08.558Z,49.37
2022-12-15T16:10:36.704Z,58.27
2022-12-15T16:13:04.827Z,44.90
2022-12-15T16:15:33.372Z,52.60
2022-12-15T16:18:02.909Z,48.37
2022-12-15T16:20:31.358Z,50.40
2022-12-15T16:23:02.020Z,47.80
2022-12-15T16:25:39.765Z,50.47
2022-12-15T16:28:14.458Z,47.63
2022-12-15T16:30:43.540Z,60.90
2022-12-15T16:33:13.728Z,58.43
2022-12-15T16:35:43.457Z,46.80
2022-12-15T16:38:16.955Z,53.27
2022-12-15T16:40:45.091Z,55.80
2022-12-15T16:43:16.323Z,50.20
2022-12-15T16:45:45.818Z,47.07
2022-12-15T16:48:15.995Z,46.43
2022-12-15T16:50:46.433Z,47.07
2022-12-15T16:53:17.589Z,50.33
2022-12-15T16:55:46.358Z,56.00
2022-12-15T16:58:17.070Z,53.50
2022-12-15T17:00:45.999Z,48.00
2022-12-15T17:03:16.858Z,49.93
2022-12-15T17:05:49.427Z,49.53
2022-12-15T17:08:20.105Z,53.60
2022-12-15T17:10:50.455Z,50.73
2022-12-15T17:13:36.520Z,45.97
2022-12-15T17:16:08.524Z,45.97
2022-12-15T17:18:38.139Z,46.17
2022-12-15T17:21:12.668Z,48.60
2022-12-15T17:23:41.754Z,49.77
2022-12-15T17:26:29.864Z,50.30
2022-12-15T17:29:02.207Z,48.50
2022-12-15T17:31:35.708Z,50.90
2022-12-15T17:34:28.153Z,50.50
2022-12-15T17:36:56.434Z,46.57
2022-12-15T17:39:24.732Z,45.23
2022-12-15T17:42:02.028Z,44.60
2022-12-15T17:44:35.032Z,48.80
2022-12-15T17:47:06.159Z,46.73
2022-12-15T17:49:38.684Z,47.20
2022-12-15T17:52:15.117Z,41.67
2022-12-15T17:54:43.472Z,46.13
2022-12-15T17:57:13.289Z,46.13
2022-12-15T17:59:41.539Z,43.07
2022-12-15T18:02:12.293Z,43.30
2022-12-15T18:04:42.148Z,46.53
2022-12-15T18:07:16.404Z,48.43
2022-12-15T18:09:44.837Z,43.00
2022-12-15T18:12:19.407Z,47.37
2022-12-15T18:14:47.821Z,43.90
2022-12-15T18:17:16.367Z,47.97
2022-12-15T18:19:45.988Z,45.93
2022-12-15T18:22:16.496Z,40.77
2022-12-15T18:24:44.953Z,42.80
2022-12-15T18:27:21.891Z,43.70
2022-12-15T18:29:50.187Z,42.87
2022-12-15T18:32:19.401Z,42.10
2022-12-15T18:34:49.022Z,45.40
2022-12-15T18:37:18.634Z,42.43
2022-12-15T18:39:48.796Z,40.10
2022-12-15T18:42:19.515Z,45.50
2022-12-15T18:44:48.923Z,46.60
2022-12-15T18:47:19.302Z,36.80
2022-12-15T18:49:48.892Z,37.10
2022-12-15T18:52:18.769Z,38.33
2022-12-15T18:54:48.280Z,37.97
2022-12-15T18:57:31.398Z,41.03
2022-12-15T19:00:04.509Z,40.07
2022-12-15T19:02:33.029Z,42.47
2022-12-15T19:05:02.627Z,35.47
2022-12-15T19:07:31.124Z,43.00
2022-12-15T19:10:00.862Z,35.93
2022-12-15T19:12:29.166Z,35.50
2022-12-15T19:14:57.238Z,39.70
2022-12-15T19:17:42.980Z,35.73
2022-12-15T19:20:35.428Z,41.00
2022-12-15T19:23:03.911Z,37.10
2022-12-15T19:25:32.949Z,33.27
2022-12-15T19:28:02.516Z,37.60
2022-12-15T19:30:36.910Z,32.47
2022-12-15T19:33:08.797Z,41.53
2022-12-15T19:35:40.350Z,32.67
2022-12-15T19:38:09.241Z,40.57
2022-12-15T19:40:39.078Z,40.90
2022-12-15T19:43:07.516Z,39.00
2022-12-15T19:45:36.206Z,31.17
2022-12-15T19:48:06.644Z,37.70
2022-12-15T19:50:39.036Z,34.83
2022-12-15T19:53:14.002Z,34.50
2022-12-15T19:55:42.269Z,36.17
2022-12-15T19:58:28.938Z,31.17
2022-12-15T20:00:58.505Z,34.90
2022-12-15T20:03:27.329Z,30.70
2022-12-15T20:05:58.616Z,32.97
2022-12-15T20:08:29.112Z,30.73
2022-12-15T20:10:57.934Z,26.30
2022-12-15T20:13:27.087Z,30.20
2022-12-15T20:15:56.338Z,29.07
2022-12-15T20:18:24.445Z,30.73
2022-12-15T20:20:52.772Z,30.70
2022-12-15T20:23:26.130Z,28.20
2022-12-15T20:25:55.812Z,27.83
2022-12-15T20:28:25.929Z,31.97
2022-12-15T20:30:56.039Z,36.03
2022-12-15T20:33:24.215Z,29.65
2022-12-15T20:35:53.506Z,32.03
2022-12-15T20:38:30.184Z,29.90
2022-12-15T20:40:58.892Z,33.17
2022-12-15T20:43:31.021Z,28.83
2022-12-15T20:46:04.910Z,29.03
2022-12-15T20:48:34.689Z,29.10
2022-12-15T20:51:09.889Z,31.30
2022-12-15T20:53:39.905Z,24.60
2022-12-15T20:56:08.748Z,29.73
2022-12-15T20:58:39.741Z,23.97
2022-12-15T21:01:19.408Z,28.97
2022-12-15T21:03:48.745Z,30.07
2022-12-15T21:06:17.932Z,26.07
2022-12-15T21:08:47.658Z,33.07
2022-12-15T21:11:18.399Z,28.80
2022-12-15T21:13:48.136Z,34.00
2022-12-15T21:16:19.510Z,23.77
2022-12-15T21:21:38.932Z,27.80
2022-12-15T21:24:16.276Z,27.67
2022-12-15T21:26:47.837Z,24.85
2022-12-15T21:29:17.965Z,24.97
2022-12-15T21:31:46.838Z,27.03
2022-12-15T21:34:15.345Z,23.88
2022-12-15T21:36:46.434Z,31.10
2022-12-15T21:39:23.532Z,27.27
2022-12-15T21:41:51.813Z,28.47
2022-12-15T21:44:19.963Z,24.37
2022-12-15T21:46:48.623Z,25.13
2022-12-15T21:49:20.615Z,31.63
2022-12-15T21:51:52.698Z,26.17
2022-12-15T21:54:30.960Z,23.95
2022-12-15T21:56:59.942Z,26.77
2022-12-15T21:59:30.386Z,24.85
2022-12-15T22:02:00.241Z,26.13
2022-12-15T22:04:31.664Z,24.13
2022-12-15T22:06:59.790Z,24.73
2022-12-15T22:09:29.464Z,23.67
2022-12-15T22:11:58.140Z,23.67
2022-12-15T22:14:29.582Z,26.40
2022-12-15T22:16:58.279Z,23.57
2022-12-15T22:19:26.463Z,25.50
2022-12-15T22:21:54.598Z,23.27
2022-12-15T22:24:23.130Z,25.95
2022-12-15T22:26:52.604Z,26.17
2022-12-15T22:29:23.279Z,27.48
2022-12-15T22:31:55.082Z,21.65
2022-12-15T22:34:25.128Z,24.80
2022-12-15T22:36:54.942Z,22.77
2022-12-15T22:39:23.210Z,23.00
2022-12-15T22:41:53.624Z,25.05
2022-12-15T22:44:24.843Z,22.55
2022-12-15T22:46:55.153Z,24.63
2022-12-15T22:49:26.159Z,25.38
2022-12-15T22:51:54.962Z,22.42
2022-12-15T22:54:24.926Z,22.67
2022-12-15T22:56:58.462Z,25.02
2022-12-15T22:59:30.881Z,21.85
2022-12-15T23:01:59.371Z,24.63
2022-12-15T23:04:27.550Z,23.40
2022-12-15T23:06:55.774Z,20.48
2022-12-15T23:09:24.051Z,23.92
2022-12-15T23:11:51.165Z,24.08
2022-12-15T23:14:41.287Z,22.77
2022-12-15T23:17:08.951Z,21.05
2022-12-15T23:19:37.231Z,22.73
2022-12-15T23:22:05.377Z,23.33
2022-12-15T23:24:33.657Z,22.63
2022-12-15T23:27:01.798Z,26.58
2022-12-15T23:29:31.384Z,19.48
2022-12-15T23:31:59.569Z,22.67
2022-12-15T23:34:27.882Z,20.58
2022-12-15T23:36:58.919Z,23.00
2022-12-15T23:39:27.069Z,22.95
2022-12-15T23:41:55.188Z,24.17
2022-12-15T23:44:23.259Z,25.42
2022-12-15T23:46:52.783Z,23.92
2022-12-15T23:49:20.979Z,23.75
2022-12-15T23:51:49.378Z,22.13
2022-12-15T23:54:17.513Z,22.92
2022-12-15T23:56:45.636Z,22.92
2022-12-15T23:59:14.371Z,25.20
